createdAt,value
2017-03-20T00:01:39.047Z,94.8
2017-03-20T00:02:41.403Z,94.8
2017-03-20T00:03:44.257Z,94.8
2017-03-20T00:04:46.835Z,94.8
2017-03-20T00:05:49.690Z,94.8
2017-03-20T00:06:52.351Z,94.8
2017-03-20T00:07:54.697Z,94.8
2017-03-20T00:08:57.550Z,94.8
2017-03-20T00:10:00.129Z,94.8
2017-03-20T00:11:02.857Z,94.8
2017-03-20T00:12:05.368Z,94.8
2017-03-20T00:13:08.214Z,94.8
2017-03-20T00:14:10.563Z,94.8
2017-03-20T00:15:13.414Z,94.8
2017-03-20T00:16:16.265Z,94.8
2017-03-20T00:17:18.915Z,94.8
2017-03-20T00:18:21.128Z,94.8
2017-03-20T00:19:23.981Z,94.8
2017-03-20T00:20:26.703Z,94.8
2017-03-20T00:21:29.414Z,94.8
2017-03-20T00:22:32.059Z,94.8
2017-03-20T00:23:34.405Z,94.8
2017-03-20T00:24:37.258Z,94.8
2017-03-20T00:25:39.839Z,94.8
2017-03-20T00:26:42.684Z,94.8
2017-03-20T00:27:45.344Z,94.8
2017-03-20T00:28:47.700Z,94.8
2017-03-20T00:29:50.551Z,94.8
2017-03-20T00:30:53.128Z,94.8
2017-03-20T00:31:55.841Z,94.8
2017-03-20T00:32:58.742Z,94.8
2017-03-20T00:34:01.093Z,94.8
2017-03-20T00:35:03.947Z,94.8
2017-03-20T00:36:06.214Z,94.8
2017-03-20T00:37:09.060Z,94.8
2017-03-20T00:38:11.775Z,94.8
2017-03-20T00:39:14.122Z,94.8
2017-03-20T00:41:19.889Z,94.8
2017-03-20T00:42:22.234Z,94.8
2017-03-20T00:43:25.338Z,94.8
2017-03-20T00:44:27.554Z,94.8
2017-03-20T00:45:30.408Z,94.8
2017-03-20T00:46:32.615Z,94.8
2017-03-20T00:47:35.467Z,94.8
2017-03-20T00:48:38.439Z,94.8
2017-03-20T00:49:40.788Z,94.8
2017-03-20T00:50:43.634Z,94.8
2017-03-20T00:51:45.979Z,94.8
2017-03-20T00:52:48.828Z,94.8
2017-03-20T00:53:51.850Z,94.8
2017-03-20T00:54:54.064Z,94.7
2017-03-20T00:55:56.780Z,94.8
2017-03-20T00:56:59.492Z,94.7
2017-03-20T00:58:01.837Z,94.7
2017-03-20T00:59:04.936Z,94.7
2017-03-20T01:00:07.283Z,94.7
2017-03-20T01:01:10.130Z,94.7
2017-03-20T01:02:12.849Z,94.8
2017-03-20T01:03:15.193Z,94.8
2017-03-20T01:04:18.349Z,94.7
2017-03-20T01:05:20.695Z,94.8
2017-03-20T01:06:23.413Z,94.7
2017-03-20T01:08:28.664Z,94.8
2017-03-20T01:09:31.879Z,94.7
2017-03-20T01:10:33.720Z,94.7
2017-03-20T01:11:36.635Z,94.7
2017-03-20T01:12:38.989Z,94.7
2017-03-20T01:13:41.711Z,94.7
2017-03-20T01:14:45.224Z,94.7
2017-03-20T01:15:47.071Z,94.7
2017-03-20T01:16:49.919Z,94.7
2017-03-20T01:17:52.273Z,94.7
2017-03-20T01:19:57.786Z,94.7
2017-03-20T01:21:00.135Z,94.7
2017-03-20T01:22:02.847Z,94.7
2017-03-20T01:23:05.491Z,94.7
2017-03-20T01:24:08.208Z,94.7
2017-03-20T01:25:11.362Z,94.7
2017-03-20T01:26:13.711Z,94.7
2017-03-20T01:28:18.999Z,94.7
2017-03-20T01:29:21.724Z,94.7
2017-03-20T01:30:24.368Z,94.7
2017-03-20T01:31:26.715Z,94.7
2017-03-20T01:32:29.559Z,94.7
2017-03-20T01:33:31.911Z,94.7
2017-03-20T01:34:34.760Z,94.7
2017-03-20T01:35:37.780Z,94.7
2017-03-20T01:36:40.122Z,94.7
2017-03-20T01:37:42.835Z,94.7
2017-03-20T01:38:45.179Z,94.7
2017-03-20T01:39:48.036Z,94.7
2017-03-20T01:40:54.114Z,94.7
2017-03-20T01:41:53.450Z,94.7
2017-03-20T01:42:55.797Z,94.7
2017-03-20T01:43:58.644Z,94.7
2017-03-20T01:45:01.296Z,94.7
2017-03-20T01:46:04.197Z,94.7
2017-03-20T01:47:06.409Z,94.7
2017-03-20T01:48:09.125Z,94.7
2017-03-20T01:49:11.975Z,94.7
2017-03-20T01:50:14.329Z,94.7
2017-03-20T01:51:17.178Z,94.7
2017-03-20T01:52:20.060Z,94.7
2017-03-20T01:53:22.404Z,94.7
2017-03-20T01:54:25.258Z,94.7
2017-03-20T01:55:27.608Z,94.7
2017-03-20T01:56:30.360Z,94.7
2017-03-20T01:57:33.210Z,94.7
2017-03-20T01:58:35.558Z,94.7
2017-03-20T01:59:06.203Z,94.7
2017-03-20T01:59:38.352Z,94.7
2017-03-20T02:00:41.210Z,94.7
2017-03-20T02:01:43.551Z,94.7
2017-03-20T02:02:46.406Z,94.7
2017-03-20T02:03:48.756Z,94.7
2017-03-20T02:04:51.609Z,94.7
2017-03-20T02:05:54.324Z,94.7
2017-03-20T02:06:57.280Z,94.7
2017-03-20T02:07:59.626Z,94.7
2017-03-20T02:09:01.991Z,94.7
2017-03-20T02:10:04.840Z,94.7
2017-03-20T02:11:07.692Z,94.7
2017-03-20T02:12:09.954Z,94.7
2017-03-20T02:13:12.805Z,94.7
2017-03-20T02:14:15.657Z,94.7
2017-03-20T02:15:17.869Z,94.7
2017-03-20T02:16:20.716Z,94.7
2017-03-20T02:17:23.680Z,94.7
2017-03-20T02:18:26.023Z,94.7
2017-03-20T02:19:28.874Z,94.7
2017-03-20T02:20:31.229Z,94.7
2017-03-20T02:21:34.082Z,94.7
2017-03-20T02:22:36.594Z,94.7
2017-03-20T02:23:39.440Z,94.7
2017-03-20T02:24:41.648Z,94.7
2017-03-20T02:25:44.501Z,94.7
2017-03-20T02:26:47.349Z,94.7
2017-03-20T02:27:50.367Z,94.7
2017-03-20T02:28:52.451Z,94.7
2017-03-20T02:29:55.302Z,94.7
2017-03-20T02:30:57.517Z,94.7
2017-03-20T02:32:00.367Z,94.7
2017-03-20T02:33:03.332Z,94.7
2017-03-20T02:34:05.545Z,94.7
2017-03-20T02:35:08.392Z,94.7
2017-03-20T02:36:11.240Z,94.7
2017-03-20T02:37:14.509Z,94.7
2017-03-20T02:38:16.519Z,94.7
2017-03-20T02:39:19.231Z,94.7
2017-03-20T02:40:21.583Z,94.7
2017-03-20T02:41:24.432Z,94.7
2017-03-20T02:42:27.009Z,94.7
2017-03-20T02:43:29.641Z,94.7
2017-03-20T02:44:32.490Z,94.7
2017-03-20T02:45:34.701Z,94.7
2017-03-20T02:46:37.548Z,94.7
2017-03-20T02:47:40.396Z,94.7
2017-03-20T02:48:43.049Z,94.7
2017-03-20T02:49:45.395Z,94.7
2017-03-20T02:50:48.246Z,94.7
2017-03-20T02:51:50.592Z,94.7
2017-03-20T02:52:53.439Z,94.7
2017-03-20T02:53:56.456Z,94.7
2017-03-20T02:54:58.807Z,94.7
2017-03-20T02:56:01.391Z,94.7
2017-03-20T02:57:04.236Z,94.7
2017-03-20T02:58:06.593Z,94.7
2017-03-20T02:59:09.745Z,94.7
2017-03-20T03:00:12.086Z,94.7
2017-03-20T03:01:14.471Z,94.7
2017-03-20T03:02:17.332Z,94.7
2017-03-20T03:03:20.049Z,94.7
2017-03-20T03:04:22.701Z,94.7
2017-03-20T03:05:24.907Z,94.7
2017-03-20T03:06:28.115Z,94.7
2017-03-20T03:07:30.459Z,94.7
2017-03-20T03:08:33.305Z,94.7
2017-03-20T03:09:35.953Z,94.7
2017-03-20T03:10:38.235Z,94.7
2017-03-20T03:11:40.947Z,94.7
2017-03-20T03:12:43.662Z,94.7
2017-03-20T03:14:49.590Z,94.7
2017-03-20T03:15:51.938Z,94.7
2017-03-20T03:16:54.316Z,94.7
2017-03-20T03:17:57.037Z,94.7
2017-03-20T03:18:59.757Z,94.7
2017-03-20T03:20:02.359Z,94.7
2017-03-20T03:21:05.074Z,94.7
2017-03-20T03:22:07.789Z,94.7
2017-03-20T03:23:10.505Z,94.7
2017-03-20T03:24:12.849Z,94.7
2017-03-20T03:25:15.817Z,94.7
2017-03-20T03:26:18.164Z,94.7
2017-03-20T03:27:21.016Z,94.7
2017-03-20T03:28:23.731Z,94.7
2017-03-20T03:29:25.944Z,94.7
2017-03-20T03:30:29.045Z,94.7
2017-03-20T03:31:31.391Z,94.7
2017-03-20T03:32:34.240Z,94.7
2017-03-20T03:33:36.627Z,94.7
2017-03-20T03:34:39.490Z,94.7
2017-03-20T03:35:42.147Z,94.7
2017-03-20T03:36:44.495Z,94.7
2017-03-20T03:37:47.218Z,94.7
2017-03-20T03:38:50.071Z,94.7
2017-03-20T03:40:55.585Z,94.7
2017-03-20T03:41:57.930Z,94.7
2017-03-20T03:43:00.782Z,94.7
2017-03-20T03:44:03.129Z,94.7
2017-03-20T03:45:05.982Z,94.7
2017-03-20T03:46:08.632Z,94.7
2017-03-20T03:47:10.985Z,94.7
2017-03-20T03:48:13.846Z,94.7
2017-03-20T03:49:16.563Z,94.7
2017-03-20T03:50:19.426Z,94.7
2017-03-20T03:51:21.777Z,94.7
2017-03-20T03:52:24.491Z,94.7
2017-03-20T03:54:29.616Z,94.7
2017-03-20T03:55:32.220Z,94.7
2017-03-20T03:56:35.324Z,94.7
2017-03-20T03:57:37.674Z,94.7
2017-03-20T03:58:40.529Z,94.7
2017-03-20T03:59:42.886Z,94.7
2017-03-20T04:00:45.740Z,94.7
2017-03-20T04:01:48.341Z,94.7
2017-03-20T04:02:51.201Z,94.7
2017-03-20T04:03:53.592Z,94.7
2017-03-20T04:04:56.444Z,94.7
2017-03-20T04:05:58.797Z,94.7
2017-03-20T04:07:01.819Z,94.7
2017-03-20T04:08:04.164Z,94.7
2017-03-20T04:09:06.886Z,94.7
2017-03-20T04:10:09.607Z,94.7
2017-03-20T04:11:12.323Z,94.7
2017-03-20T04:12:14.929Z,94.7
2017-03-20T04:13:17.282Z,94.7
2017-03-20T04:14:20.001Z,94.7
2017-03-20T04:15:22.722Z,94.7
2017-03-20T04:16:25.310Z,94.7
2017-03-20T04:17:28.414Z,94.7
2017-03-20T04:18:30.759Z,94.7
2017-03-20T04:19:33.113Z,94.8
2017-03-20T04:20:35.838Z,94.8
2017-03-20T04:21:38.575Z,94.7
2017-03-20T04:22:41.546Z,94.8
2017-03-20T04:23:43.767Z,94.8
2017-03-20T04:24:46.628Z,94.8
2017-03-20T04:25:49.347Z,94.7
2017-03-20T04:26:51.694Z,94.7
2017-03-20T04:27:54.854Z,94.8
2017-03-20T04:28:57.208Z,94.8
2017-03-20T04:30:00.063Z,94.8
2017-03-20T04:31:02.277Z,94.7
2017-03-20T04:32:04.889Z,94.7
2017-03-20T04:33:08.050Z,94.8
2017-03-20T04:34:10.407Z,94.7
2017-03-20T04:35:13.267Z,94.7
2017-03-20T04:36:15.646Z,94.7
2017-03-20T04:37:18.506Z,94.8
2017-03-20T04:38:21.157Z,94.8
2017-03-20T04:39:23.510Z,94.7
2017-03-20T04:40:26.361Z,94.8
2017-03-20T04:41:28.902Z,94.8
2017-03-20T04:42:31.755Z,94.8
2017-03-20T04:43:34.405Z,94.8
2017-03-20T04:44:36.618Z,94.8
2017-03-20T04:45:39.469Z,94.8
2017-03-20T04:46:42.317Z,94.8
2017-03-20T04:47:44.665Z,94.8
2017-03-20T04:48:47.824Z,94.8
2017-03-20T04:49:50.047Z,94.8
2017-03-20T04:50:52.894Z,94.8
2017-03-20T04:51:55.239Z,94.8
2017-03-20T04:52:57.953Z,94.7
2017-03-20T04:54:01.109Z,94.7
2017-03-20T04:55:03.461Z,94.7
2017-03-20T04:56:06.179Z,94.8
2017-03-20T04:57:08.534Z,94.7
2017-03-20T04:58:11.390Z,94.8
2017-03-20T04:59:13.988Z,94.8
2017-03-20T05:00:16.852Z,94.8
2017-03-20T05:01:19.198Z,94.8
2017-03-20T05:02:22.056Z,94.8
2017-03-20T05:03:24.410Z,94.8
2017-03-20T05:05:29.923Z,94.8
2017-03-20T05:06:32.272Z,94.8
2017-03-20T05:07:34.854Z,94.8
2017-03-20T05:08:37.577Z,94.8
2017-03-20T05:09:40.429Z,94.8
2017-03-20T05:10:43.447Z,94.8
2017-03-20T05:11:45.665Z,94.8
2017-03-20T05:12:48.515Z,94.8
2017-03-20T05:13:51.098Z,94.8
2017-03-20T05:14:53.450Z,94.8
2017-03-20T05:15:56.607Z,94.8
2017-03-20T05:16:58.822Z,94.8
2017-03-20T05:18:01.686Z,94.8
2017-03-20T05:19:04.056Z,94.8
2017-03-20T05:20:06.906Z,94.8
2017-03-20T05:21:10.114Z,94.8
2017-03-20T05:22:12.462Z,94.8
2017-03-20T05:23:14.811Z,94.8
2017-03-20T05:24:17.664Z,94.8
2017-03-20T05:25:20.012Z,94.8
2017-03-20T05:26:23.116Z,94.8
2017-03-20T05:27:25.464Z,94.8
2017-03-20T05:28:28.180Z,94.8
2017-03-20T05:29:30.528Z,94.8
2017-03-20T05:30:33.378Z,94.8
2017-03-20T05:31:36.395Z,94.8
2017-03-20T05:32:38.746Z,94.8
2017-03-20T05:33:41.467Z,94.8
2017-03-20T05:34:44.056Z,94.8
2017-03-20T05:35:46.913Z,94.8
2017-03-20T05:36:49.511Z,94.8
2017-03-20T05:37:51.861Z,94.8
2017-03-20T05:38:54.715Z,94.8
2017-03-20T05:39:57.438Z,94.8
2017-03-20T05:40:59.789Z,94.8
2017-03-20T05:42:02.808Z,94.8
2017-03-20T05:43:05.155Z,94.8
2017-03-20T05:44:07.875Z,94.8
2017-03-20T05:45:10.738Z,94.8
2017-03-20T05:46:13.088Z,94.8
2017-03-20T05:47:16.199Z,94.8
2017-03-20T05:48:18.553Z,94.8
2017-03-20T05:49:21.277Z,94.8
2017-03-20T05:50:23.633Z,94.7
2017-03-20T05:51:26.491Z,94.8
2017-03-20T05:52:29.143Z,94.8
2017-03-20T05:53:31.494Z,94.8
2017-03-20T05:54:34.350Z,94.8
2017-03-20T05:56:40.033Z,94.8
2017-03-20T05:57:42.684Z,94.8
2017-03-20T05:58:45.039Z,94.8
2017-03-20T05:59:47.392Z,94.8
2017-03-20T06:00:50.247Z,94.8
2017-03-20T06:01:53.097Z,94.8
2017-03-20T06:02:55.704Z,94.8
2017-03-20T06:03:58.056Z,94.8
2017-03-20T06:05:00.907Z,94.8
2017-03-20T06:06:03.762Z,94.8
2017-03-20T06:08:09.323Z,94.7
2017-03-20T06:09:11.536Z,94.7
2017-03-20T06:11:16.747Z,94.7
2017-03-20T06:12:19.332Z,94.7
2017-03-20T06:13:22.489Z,94.7
2017-03-20T06:14:24.835Z,94.7
2017-03-20T06:15:27.618Z,94.7
2017-03-20T06:16:30.027Z,94.7
2017-03-20T06:17:32.880Z,94.7
2017-03-20T06:18:35.534Z,94.7
2017-03-20T06:19:37.923Z,94.7
2017-03-20T06:20:40.778Z,94.7
2017-03-20T06:23:48.693Z,94.7
2017-03-20T06:24:51.280Z,94.7
2017-03-20T06:25:54.135Z,94.6
2017-03-20T06:26:56.352Z,94.6
2017-03-20T06:27:59.077Z,94.6
2017-03-20T06:29:02.233Z,94.6
2017-03-20T06:30:04.447Z,94.6
2017-03-20T06:31:07.301Z,94.6
2017-03-20T06:32:09.659Z,94.6
2017-03-20T06:33:12.395Z,94.6
2017-03-20T06:35:17.982Z,94.6
2017-03-20T06:38:25.881Z,94.6
2017-03-20T06:39:28.737Z,94.6
2017-03-20T06:40:31.391Z,94.6
2017-03-20T06:41:33.744Z,94.6
2017-03-20T06:42:36.596Z,94.6
2017-03-20T06:43:38.948Z,94.6
2017-03-20T06:44:42.444Z,94.6
2017-03-20T06:45:44.546Z,94.5
2017-03-20T06:46:47.263Z,94.5
2017-03-20T06:47:49.540Z,94.5
2017-03-20T06:48:52.398Z,94.5
2017-03-20T06:52:00.865Z,94.5
2017-03-20T06:54:05.495Z,94.5
2017-03-20T06:55:08.349Z,94.5
2017-03-20T07:00:21.916Z,94.5
2017-03-20T07:01:24.261Z,94.5
2017-03-20T07:02:27.114Z,94.5
2017-03-20T07:03:29.464Z,94.5
2017-03-20T07:04:32.316Z,94.5
2017-03-20T07:05:35.413Z,94.5
2017-03-20T07:07:40.163Z,94.5
2017-03-20T07:08:42.887Z,94.5
2017-03-20T07:10:48.447Z,94.4
2017-03-20T07:11:50.662Z,94.4
2017-03-20T07:12:53.520Z,94.4
2017-03-20T07:13:56.381Z,94.4
2017-03-20T07:14:59.101Z,94.4
2017-03-20T07:16:02.120Z,94.4
2017-03-20T07:17:04.470Z,94.4
2017-03-20T07:18:06.821Z,94.3
2017-03-20T07:19:09.680Z,94.3
2017-03-20T07:21:15.196Z,94.3
2017-03-20T07:22:17.284Z,94.3
2017-03-20T07:23:20.141Z,94.3
2017-03-20T07:25:25.398Z,94.3
2017-03-20T07:26:28.550Z,94.2
2017-03-20T07:27:30.761Z,94.2
2017-03-20T07:29:36.022Z,94.2
2017-03-20T07:30:38.737Z,94.2
2017-03-20T07:31:41.894Z,94.2
2017-03-20T07:32:44.249Z,94.2
2017-03-20T07:34:49.382Z,94.1
2017-03-20T07:35:52.240Z,94.1
2017-03-20T07:36:55.397Z,94.1
2017-03-20T07:37:57.744Z,94.1
2017-03-20T07:39:00.091Z,94.1
2017-03-20T07:40:02.950Z,94
2017-03-20T07:41:05.676Z,94
2017-03-20T07:43:11.057Z,94
2017-03-20T07:44:13.273Z,94
2017-03-20T07:45:16.124Z,93.9
2017-03-20T07:46:18.977Z,93.9
2017-03-20T07:47:21.692Z,93.9
2017-03-20T07:48:24.344Z,93.8
2017-03-20T07:49:28.124Z,93.8
2017-03-20T07:50:29.807Z,93.8
2017-03-20T07:51:32.525Z,93.7
2017-03-20T07:52:34.928Z,93.7
2017-03-20T07:53:38.037Z,93.7
2017-03-20T07:54:40.395Z,93.7
2017-03-20T07:55:42.748Z,93.7
2017-03-20T07:56:45.600Z,93.7
2017-03-20T07:57:48.459Z,93.7
2017-03-20T07:58:50.930Z,93.7
2017-03-20T07:59:53.786Z,93.7
2017-03-20T08:00:56.140Z,93.7
2017-03-20T08:01:58.861Z,93.7
2017-03-20T08:03:01.723Z,93.7
2017-03-20T08:05:07.288Z,93.7
2017-03-20T08:06:09.638Z,93.7
2017-03-20T08:07:12.492Z,93.7
2017-03-20T08:08:15.210Z,93.7
2017-03-20T08:09:17.430Z,93.7
2017-03-20T08:10:20.904Z,93.7
2017-03-20T08:11:23.249Z,93.6
2017-03-20T08:12:25.597Z,93.6
2017-03-20T08:13:28.451Z,93.6
2017-03-20T08:14:31.311Z,93.6
2017-03-20T08:15:33.913Z,93.6
2017-03-20T08:16:36.260Z,93.6
2017-03-20T08:17:39.150Z,93.5
2017-03-20T08:18:41.876Z,93.5
2017-03-20T08:19:44.735Z,93.5
2017-03-20T08:20:47.706Z,93.5
2017-03-20T08:21:50.062Z,93.4
2017-03-20T08:22:52.783Z,93.4
2017-03-20T08:23:55.506Z,93.4
2017-03-20T08:24:57.863Z,93.4
2017-03-20T08:26:00.970Z,93.3
2017-03-20T08:27:03.182Z,93.3
2017-03-20T08:28:05.908Z,93.3
2017-03-20T08:29:08.627Z,93.3
2017-03-20T08:30:11.484Z,93.3
2017-03-20T08:31:14.085Z,93.3
2017-03-20T08:32:16.936Z,93.3
2017-03-20T08:33:19.282Z,93.3
2017-03-20T08:34:22.004Z,93.3
2017-03-20T08:35:24.860Z,93.4
2017-03-20T08:36:27.510Z,93.4
2017-03-20T08:37:30.359Z,93.4
2017-03-20T08:38:32.704Z,93.4
2017-03-20T08:39:35.559Z,93.5
2017-03-20T08:40:38.412Z,93.5
2017-03-20T08:41:41.059Z,93.5
2017-03-20T08:42:43.406Z,93.5
2017-03-20T08:43:46.264Z,93.6
2017-03-20T08:44:49.119Z,93.6
2017-03-20T08:45:51.471Z,93.6
2017-03-20T08:46:54.621Z,93.6
2017-03-20T08:47:56.974Z,93.7
2017-03-20T08:48:59.835Z,93.7
2017-03-20T08:50:02.240Z,93.7
2017-03-20T08:51:05.099Z,93.7
2017-03-20T08:52:07.755Z,93.7
2017-03-20T08:53:10.473Z,93.7
2017-03-20T08:54:13.163Z,93.7
2017-03-20T08:55:15.516Z,93.7
2017-03-20T08:57:21.575Z,93.7
2017-03-20T08:58:23.952Z,93.7
2017-03-20T08:59:26.307Z,93.7
2017-03-20T09:00:29.156Z,93.7
2017-03-20T09:01:31.873Z,93.6
2017-03-20T09:02:34.900Z,93.6
2017-03-20T09:03:37.367Z,93.6
2017-03-20T09:04:39.718Z,93.6
2017-03-20T09:05:42.567Z,93.5
2017-03-20T09:06:44.970Z,93.5
2017-03-20T09:07:48.129Z,93.4
2017-03-20T09:08:50.483Z,93.4
2017-03-20T09:09:53.202Z,93.3
2017-03-20T09:10:55.924Z,93.2
2017-03-20T09:11:58.654Z,93.2
2017-03-20T09:13:01.624Z,93.1
2017-03-20T09:14:03.973Z,93.1
2017-03-20T09:15:06.689Z,93
2017-03-20T09:16:09.405Z,92.9
2017-03-20T09:17:12.251Z,92.8
2017-03-20T09:18:14.854Z,92.7
2017-03-20T09:19:17.570Z,92.6
2017-03-20T09:20:20.421Z,92.4
2017-03-20T09:21:22.766Z,92.3
2017-03-20T09:22:25.495Z,92.2
2017-03-20T09:23:28.525Z,92.1
2017-03-20T09:24:30.739Z,92
2017-03-20T09:25:33.454Z,91.8
2017-03-20T09:26:36.238Z,91.7
2017-03-20T09:27:39.086Z,91.6
2017-03-20T09:28:42.242Z,91.5
2017-03-20T09:29:44.591Z,91.5
2017-03-20T09:30:47.178Z,91.4
2017-03-20T09:32:52.300Z,91.4
2017-03-20T09:33:55.406Z,91.4
2017-03-20T09:34:58.122Z,91.5
2017-03-20T09:36:00.974Z,91.5
2017-03-20T09:37:03.187Z,91.5
2017-03-20T09:38:05.908Z,91.6
2017-03-20T09:40:12.216Z,91.7
2017-03-20T09:41:14.097Z,91.7
2017-03-20T09:42:17.373Z,91.8
2017-03-20T09:43:19.718Z,91.8
2017-03-20T09:44:22.446Z,91.8
2017-03-20T09:45:25.424Z,91.9
2017-03-20T09:46:27.644Z,91.9
2017-03-20T09:47:30.493Z,91.9
2017-03-20T09:48:33.345Z,91.8
2017-03-20T09:49:35.700Z,91.8
2017-03-20T09:50:38.953Z,91.9
2017-03-20T09:51:41.200Z,91.9
2017-03-20T09:52:43.918Z,91.9
2017-03-20T09:53:46.772Z,91.9
2017-03-20T09:54:50.039Z,91.8
2017-03-20T09:55:52.696Z,91.8
2017-03-20T09:56:55.045Z,91.7
2017-03-20T09:57:57.763Z,91.7
2017-03-20T10:00:03.065Z,91.7
2017-03-20T10:01:06.083Z,91.7
2017-03-20T10:02:08.303Z,91.7
2017-03-20T10:03:11.254Z,91.7
2017-03-20T10:04:14.117Z,91.7
2017-03-20T10:05:16.331Z,91.7
2017-03-20T10:06:19.674Z,91.7
2017-03-20T10:07:21.887Z,91.7
2017-03-20T10:08:24.740Z,91.7
2017-03-20T10:09:27.464Z,91.6
2017-03-20T10:10:30.317Z,91.6
2017-03-20T10:11:33.474Z,91.5
2017-03-20T10:12:35.686Z,91.5
2017-03-20T10:13:38.602Z,91.4
2017-03-20T10:14:40.950Z,91.4
2017-03-20T10:15:43.801Z,91.3
2017-03-20T10:16:46.818Z,91.2
2017-03-20T10:17:49.166Z,91.2
2017-03-20T10:18:52.018Z,91.1
2017-03-20T10:19:54.878Z,91.1
2017-03-20T10:20:57.279Z,91.1
2017-03-20T10:22:00.435Z,91.2
2017-03-20T10:24:05.560Z,91.2
2017-03-20T10:25:08.142Z,91.2
2017-03-20T10:26:10.990Z,91.3
2017-03-20T10:27:14.150Z,91.2
2017-03-20T10:28:16.643Z,91.2
2017-03-20T10:29:19.000Z,91.2
2017-03-20T10:31:24.494Z,91.1
2017-03-20T10:32:27.526Z,91.1
2017-03-20T10:33:30.383Z,91.1
2017-03-20T10:34:32.734Z,91
2017-03-20T10:35:35.453Z,91
2017-03-20T10:41:52.149Z,91.3
2017-03-20T10:51:17.068Z,91.3
2017-03-20T10:52:19.416Z,91.3
2017-03-20T10:53:21.764Z,91.2
2017-03-20T10:54:24.487Z,91.2
2017-03-20T10:55:27.205Z,91.2
2017-03-20T10:56:30.224Z,91.3
2017-03-20T10:57:32.935Z,91.3
2017-03-20T10:58:35.788Z,91.3
2017-03-20T10:59:38.003Z,91.3
2017-03-20T11:00:41.225Z,91.3
2017-03-20T11:01:44.377Z,91.3
2017-03-20T11:02:46.727Z,91.3
2017-03-20T11:03:49.109Z,91.3
2017-03-20T11:04:51.962Z,91.3
2017-03-20T11:05:54.817Z,91.3
2017-03-20T11:06:57.700Z,91.4
2017-03-20T11:08:00.050Z,91.4
2017-03-20T11:09:02.907Z,91.4
2017-03-20T11:10:05.763Z,91.4
2017-03-20T11:11:08.483Z,91.4
2017-03-20T11:12:11.366Z,91.5
2017-03-20T11:13:14.080Z,91.5
2017-03-20T11:14:16.434Z,91.6
2017-03-20T11:15:19.531Z,91.6
2017-03-20T11:16:21.881Z,91.7
2017-03-20T11:17:24.986Z,91.7
2017-03-20T11:18:27.712Z,91.8
2017-03-20T11:19:30.119Z,91.8
2017-03-20T11:20:32.976Z,91.9
2017-03-20T11:21:35.695Z,91.9
2017-03-20T11:22:38.802Z,91.9
2017-03-20T11:23:41.153Z,92
2017-03-20T11:24:43.735Z,92
2017-03-20T11:25:46.452Z,92
2017-03-20T11:26:49.309Z,92.1
2017-03-20T11:27:52.463Z,92.1
2017-03-20T11:28:54.822Z,92.1
2017-03-20T11:31:00.453Z,92.2
2017-03-20T11:32:02.804Z,92.2
2017-03-20T11:33:05.778Z,92.1
2017-03-20T11:34:08.633Z,92.1
2017-03-20T11:35:11.082Z,92.1
2017-03-20T11:36:13.930Z,92
2017-03-20T11:37:16.652Z,92
2017-03-20T11:38:19.812Z,92
2017-03-20T11:39:22.031Z,92
2017-03-20T11:40:24.885Z,92
2017-03-20T11:41:27.468Z,92
2017-03-20T11:42:30.183Z,92
2017-03-20T11:43:33.212Z,92
2017-03-20T11:44:35.488Z,91.9
2017-03-20T11:45:38.352Z,92
2017-03-20T11:47:43.626Z,91.9
2017-03-20T11:48:46.691Z,91.9
2017-03-20T11:49:49.410Z,91.8
2017-03-20T11:50:52.134Z,91.8
2017-03-20T11:51:54.990Z,91.8
2017-03-20T11:54:00.548Z,91.7
2017-03-20T11:55:02.763Z,91.7
2017-03-20T11:56:05.713Z,91.7
2017-03-20T11:57:08.563Z,91.6
2017-03-20T11:58:11.185Z,91.6
2017-03-20T11:59:14.344Z,91.6
2017-03-20T12:00:16.700Z,91.6
2017-03-20T12:01:19.412Z,91.6
2017-03-20T12:02:21.996Z,91.7
2017-03-20T12:03:24.717Z,91.7
2017-03-20T12:05:30.737Z,91.8
2017-03-20T12:06:33.145Z,91.9
2017-03-20T12:07:35.870Z,91.9
2017-03-20T12:08:38.590Z,91.9
2017-03-20T12:09:41.000Z,92
2017-03-20T12:10:43.884Z,92
2017-03-20T12:11:46.737Z,92.1
2017-03-20T12:12:49.588Z,92.1
2017-03-20T12:13:52.009Z,92.1
2017-03-20T12:14:54.732Z,92.2
2017-03-20T12:15:57.619Z,92.2
2017-03-20T12:17:00.336Z,92.2
2017-03-20T12:18:03.194Z,92.3
2017-03-20T12:19:05.547Z,92.3
2017-03-20T12:20:08.406Z,92.4
2017-03-20T12:21:11.617Z,92.4
2017-03-20T12:22:13.961Z,92.4
2017-03-20T12:23:16.547Z,92.4
2017-03-20T12:24:19.399Z,92.5
2017-03-20T12:25:22.254Z,92.5
2017-03-20T12:26:24.909Z,92.5
2017-03-20T12:27:27.625Z,92.5
2017-03-20T12:28:30.217Z,92.5
2017-03-20T12:29:32.939Z,92.4
2017-03-20T12:30:35.789Z,92.4
2017-03-20T12:31:38.676Z,92.4
2017-03-20T12:32:41.034Z,92.4
2017-03-20T12:33:43.889Z,92.3
2017-03-20T12:34:46.671Z,92.3
2017-03-20T12:35:49.528Z,92.3
2017-03-20T12:36:52.758Z,92.2
2017-03-20T12:37:54.602Z,92.2
2017-03-20T12:38:57.459Z,92.2
2017-03-20T12:40:00.175Z,92.1
2017-03-20T12:41:03.030Z,92.1
2017-03-20T12:42:05.998Z,92.1
2017-03-20T12:43:08.356Z,92.1
2017-03-20T12:44:11.074Z,92
2017-03-20T12:45:13.662Z,92
2017-03-20T12:46:16.515Z,92.1
2017-03-20T12:47:19.542Z,92.1
2017-03-20T12:49:24.801Z,92.1
2017-03-20T12:50:27.522Z,92.1
2017-03-20T12:51:30.369Z,92.2
2017-03-20T12:52:33.340Z,92.2
2017-03-20T12:53:35.692Z,92.2
2017-03-20T12:54:38.284Z,92.2
2017-03-20T12:55:41.138Z,92.2
2017-03-20T12:56:43.723Z,92.2
2017-03-20T12:57:46.935Z,92.2
2017-03-20T12:59:52.063Z,92.2
2017-03-20T13:00:54.927Z,92.1
2017-03-20T13:01:57.781Z,92
2017-03-20T13:03:00.309Z,92
2017-03-20T13:04:03.160Z,92
2017-03-20T13:05:05.869Z,92
2017-03-20T13:06:08.727Z,92
2017-03-20T13:07:11.085Z,92
2017-03-20T13:08:14.237Z,92
2017-03-20T13:09:16.589Z,92
2017-03-20T13:10:19.506Z,92.1
2017-03-20T13:11:22.356Z,92.1
2017-03-20T13:12:24.756Z,92.1
2017-03-20T13:13:27.909Z,92.1
2017-03-20T13:14:30.268Z,92.1
2017-03-20T13:15:33.122Z,92.1
2017-03-20T13:16:35.836Z,92.1
2017-03-20T13:17:38.552Z,92.1
2017-03-20T13:18:41.528Z,92.1
2017-03-20T13:19:43.874Z,92.2
2017-03-20T13:20:46.733Z,92.1
2017-03-20T13:21:49.579Z,92.2
2017-03-20T13:22:52.294Z,92.2
2017-03-20T13:23:55.123Z,92.2
2017-03-20T13:24:57.843Z,92.2
2017-03-20T13:26:00.567Z,92.2
2017-03-20T13:27:03.420Z,92.1
2017-03-20T13:28:06.135Z,92.1
2017-03-20T13:29:09.224Z,92.1
2017-03-20T13:30:11.432Z,92.1
2017-03-20T13:31:14.319Z,92.1
2017-03-20T13:33:19.580Z,92
2017-03-20T13:34:22.603Z,92.1
2017-03-20T13:35:24.816Z,92.1
2017-03-20T13:36:27.601Z,92.1
2017-03-20T13:37:30.486Z,92.1
2017-03-20T13:38:33.344Z,92.1
2017-03-20T13:39:36.502Z,92.1
2017-03-20T13:40:38.850Z,92.1
2017-03-20T13:41:41.561Z,92.1
2017-03-20T13:43:46.825Z,92.1
2017-03-20T13:44:49.794Z,92.1
2017-03-20T13:46:55.055Z,92.1
2017-03-20T13:47:57.768Z,92.2
2017-03-20T13:49:00.487Z,92.2
2017-03-20T13:50:03.370Z,92.2
2017-03-20T13:51:06.223Z,92.2
2017-03-20T13:52:08.938Z,92.2
2017-03-20T13:53:11.661Z,92.2
2017-03-20T13:55:17.797Z,92.1
2017-03-20T13:56:19.642Z,92.1
2017-03-20T13:57:22.356Z,92.1
2017-03-20T13:58:25.448Z,92.1
2017-03-20T13:59:28.305Z,92.1
2017-03-20T14:00:30.955Z,92.1
2017-03-20T14:01:33.309Z,92.2
2017-03-20T14:02:36.178Z,92.2
2017-03-20T14:03:39.031Z,92.2
2017-03-20T14:04:41.885Z,92.2
2017-03-20T14:06:47.262Z,92.2
2017-03-20T14:07:49.981Z,92.2
2017-03-20T14:08:52.838Z,92.2
2017-03-20T14:09:55.189Z,92.2
2017-03-20T14:10:58.279Z,92.2
2017-03-20T14:12:01.118Z,92.2
2017-03-20T14:18:17.457Z,92.3
2017-03-20T14:19:20.314Z,92.4
2017-03-20T14:20:22.896Z,92.4
2017-03-20T14:21:25.161Z,92.5
2017-03-20T14:22:29.083Z,92.5
2017-03-20T14:23:31.093Z,92.6
2017-03-20T14:24:33.958Z,92.6
2017-03-20T14:25:36.169Z,92.7
2017-03-20T14:26:39.048Z,92.8
2017-03-20T14:27:41.902Z,92.8
2017-03-20T14:28:45.086Z,92.9
2017-03-20T14:29:47.436Z,92.9
2017-03-20T14:30:50.286Z,92.9
2017-03-20T14:31:52.635Z,93
2017-03-20T14:32:55.489Z,93
2017-03-20T14:33:58.385Z,93
2017-03-20T14:35:01.240Z,93
2017-03-20T14:36:03.591Z,93.1
2017-03-20T14:37:06.440Z,93.1
2017-03-20T14:39:12.010Z,93.1
2017-03-20T14:40:14.738Z,93.1
2017-03-20T14:41:17.595Z,93.1
2017-03-20T14:42:19.943Z,93.1
2017-03-20T14:43:22.803Z,93.2
2017-03-20T14:44:25.916Z,93.2
2017-03-20T14:45:28.133Z,93.2
2017-03-20T14:46:30.849Z,93.2
2017-03-20T14:47:33.565Z,93.2
2017-03-20T14:48:36.424Z,93.2
2017-03-20T14:49:39.587Z,93.2
2017-03-20T14:50:41.801Z,93.2
2017-03-20T14:51:44.656Z,93.2
2017-03-20T14:52:47.511Z,93.2
2017-03-20T14:53:50.233Z,93.2
2017-03-20T14:54:53.392Z,93.2
2017-03-20T14:55:55.602Z,93.2
2017-03-20T14:56:58.453Z,93.2
2017-03-20T14:58:00.798Z,93.3
2017-03-20T14:59:03.690Z,93.3
2017-03-20T15:00:06.874Z,93.3
2017-03-20T15:01:09.111Z,93.3
2017-03-20T15:02:11.963Z,93.3
2017-03-20T15:03:14.818Z,93.3
2017-03-20T15:04:17.177Z,93.4
2017-03-20T15:05:20.399Z,93.4
2017-03-20T15:06:22.745Z,93.4